Time;durP1;ratioP1;P1;durP2;ratioP2;P2;SDS_P1;SDS_P2;PMS_P1;PMS_P2;Temp;Humidity;BMP_temperature;BMP_pressure;BME280_temperature;BME280_humidity;BME280_pressure;Samples;Min_cycle;Max_cycle;Signal;HPM_P1;HPM_P2
2021/03/11 00:00:45;;;;;;;6.95;3.95;;;;;;;-1.08;49.09;98024.17;1788936;80;21160;-60
2021/03/11 00:03:18;;;;;;;9.93;5.22;;;;;;;-1.08;49.09;98024.17;1788800;80;21298;-60
2021/03/11 00:05:46;;;;;;;5.45;3.30;;;;;;;-1.13;50.16;98025.30;1789256;80;21743;-60
2021/03/11 00:08:14;;;;;;;7.62;3.75;;;;;;;-1.16;49.48;98029.23;1788990;80;21311;-60
2021/03/11 00:10:43;;;;;;;8.48;5.53;;;;;;;-1.21;48.50;98029.46;1788777;80;21161;-63
2021/03/11 00:13:11;;;;;;;6.53;5.22;;;;;;;-1.28;50.16;98031.05;1793913;80;21172;-60
2021/03/11 00:15:42;;;;;;;4.87;4.10;;;;;;;-1.37;50.60;98028.48;1795039;80;21612;-60
2021/03/11 00:18:12;;;;;;;5.10;4.55;;;;;;;-1.47;51.89;98025.50;1795312;80;21126;-60
2021/03/11 00:20:41;;;;;;;8.75;6.00;;;;;;;-1.56;53.46;98020.00;1795163;80;21188;-60
2021/03/11 00:23:09;;;;;;;5.90;4.72;;;;;;;-1.64;50.96;98020.78;1795143;80;21157;-61
2021/03/11 00:25:37;;;;;;;6.55;4.85;;;;;;;-1.73;50.97;98017.34;1795208;79;21181;-61
2021/03/11 00:28:06;;;;;;;5.87;4.25;;;;;;;-1.80;52.13;98018.50;1794997;80;21169;-60
2021/03/11 00:30:35;;;;;;;6.75;5.78;;;;;;;-1.96;53.14;98009.42;1794915;80;21184;-62
2021/03/11 00:33:03;;;;;;;5.00;3.87;;;;;;;-1.96;52.53;98016.61;1795095;80;21196;-62
2021/03/11 00:35:31;;;;;;;4.85;3.72;;;;;;;-2.01;51.83;98017.68;1794942;80;21625;-61
2021/03/11 00:37:59;;;;;;;3.08;2.85;;;;;;;-2.06;52.00;98014.05;1794844;80;21117;-62
2021/03/11 00:40:27;;;;;;;7.45;4.47;;;;;;;-2.10;53.00;98009.19;1795228;80;21620;-60
2021/03/11 00:42:55;;;;;;;3.02;2.80;;;;;;;-2.18;56.08;98008.67;1795241;80;21180;-60
2021/03/11 00:45:23;;;;;;;7.20;3.60;;;;;;;-2.23;54.08;97996.14;1795173;79;21148;-60
2021/03/11 00:47:51;;;;;;;4.12;3.75;;;;;;;-2.30;55.21;97997.72;1795084;79;21148;-60
2021/03/11 00:50:22;;;;;;;3.60;3.25;;;;;;;-2.37;54.29;97999.67;1795041;80;21153;-62
2021/03/11 00:52:50;;;;;;;6.25;3.87;;;;;;;-2.40;54.80;98003.61;1794835;80;21176;-62
2021/03/11 00:55:20;;;;;;;4.65;4.12;;;;;;;-2.45;54.72;98002.97;1794934;80;21137;-61
2021/03/11 00:57:49;;;;;;;8.93;3.55;;;;;;;-2.49;54.46;98004.81;1794941;80;21204;-61
2021/03/11 01:00:22;;;;;;;4.35;3.98;;;;;;;-2.54;54.50;97997.83;1795140;79;21137;-61
2021/03/11 01:02:51;;;;;;;3.80;3.25;;;;;;;-2.59;53.99;97998.45;1793306;80;21148;-61
2021/03/11 01:05:29;;;;;;;6.10;3.30;;;;;;;-2.67;54.25;97997.92;1794862;80;21656;-61
2021/03/11 01:07:58;;;;;;;5.70;4.53;;;;;;;-2.71;54.74;97998.10;1795131;80;21196;-61
2021/03/11 01:10:27;;;;;;;1.85;1.75;;;;;;;-2.76;54.92;98001.29;1795230;80;21183;-62
2021/03/11 01:12:54;;;;;;;3.87;2.33;;;;;;;-2.83;54.40;97999.41;1794789;80;21152;-62
2021/03/11 01:15:24;;;;;;;3.40;2.42;;;;;;;-2.91;56.24;97995.06;1794963;80;21152;-63
2021/03/11 01:17:52;;;;;;;4.53;3.02;;;;;;;-2.96;53.91;98009.21;1795066;80;21117;-62
2021/03/11 01:20:20;;;;;;;4.00;3.25;;;;;;;-3.01;54.99;98009.85;1795231;80;21617;-67
2021/03/11 01:22:50;;;;;;;6.67;3.20;;;;;;;-3.05;55.72;98011.30;1795346;79;21141;-62
2021/03/11 01:25:18;;;;;;;2.77;2.55;;;;;;;-3.10;58.85;98015.27;1795047;79;21652;-63
2021/03/11 01:27:47;;;;;;;6.75;2.45;;;;;;;-3.18;56.39;98006.28;1795219;79;21577;-61
2021/03/11 01:30:26;;;;;;;2.17;1.50;;;;;;;-3.18;56.51;98008.38;1795324;79;21545;-61
2021/03/11 01:32:54;;;;;;;3.55;2.40;;;;;;;-3.18;56.62;98010.92;1794789;79;21179;-62
2021/03/11 01:35:22;;;;;;;1.57;1.45;;;;;;;-3.14;56.12;98007.82;1795242;79;21145;-62
2021/03/11 01:37:50;;;;;;;7.05;3.95;;;;;;;-3.15;57.40;98004.45;1795111;80;21149;-62
2021/03/11 01:40:19;;;;;;;3.35;3.05;;;;;;;-3.14;57.43;98004.84;1795283;80;21669;-62
2021/03/11 01:42:47;;;;;;;3.80;2.12;;;;;;;-3.15;57.48;97991.75;1795288;80;21573;-61
2021/03/11 01:45:17;;;;;;;3.85;3.10;;;;;;;-3.15;56.89;97993.02;1795162;80;21620;-60
2021/03/11 01:47:45;;;;;;;3.02;2.45;;;;;;;-3.16;56.77;97994.37;1795294;80;21169;-60
2021/03/11 01:50:15;;;;;;;3.75;3.47;;;;;;;-3.17;57.27;97990.16;1795330;79;21153;-61
2021/03/11 01:52:44;;;;;;;5.05;3.77;;;;;;;-3.18;57.28;97991.88;1794949;80;21168;-61
2021/03/11 01:55:14;;;;;;;5.75;3.50;;;;;;;-3.19;57.09;97994.48;1795420;80;21166;-60
2021/03/11 01:57:43;;;;;;;6.87;3.75;;;;;;;-3.22;57.02;97992.04;1795676;79;21160;-61
2021/03/11 02:00:18;;;;;;;2.22;1.87;;;;;;;-3.26;57.97;97992.59;1795598;80;21183;-61
2021/03/11 02:02:46;;;;;;;7.15;3.12;;;;;;;-3.30;58.33;97987.25;1796043;80;21152;-68
2021/03/11 02:05:17;;;;;;;6.20;3.30;;;;;;;-3.32;57.75;97983.13;1795624;80;21196;-61
2021/03/11 02:07:46;;;;;;;4.00;2.87;;;;;;;-3.34;58.08;97986.98;1795125;80;21136;-62
2021/03/11 02:10:22;;;;;;;2.25;1.82;;;;;;;-3.36;58.25;97987.05;1795400;80;21180;-60
2021/03/11 02:13:31;;;;;;;4.05;2.25;;;;;;;-3.39;58.97;97978.28;1795697;79;21160;-60
2021/03/11 02:16:14;;;;;;;2.85;1.90;;;;;;;-3.46;59.25;97978.10;1795902;80;21136;-60
2021/03/11 02:19:08;;;;;;;2.90;2.62;;;;;;;-3.54;58.51;97984.37;1776141;80;21164;-62
2021/03/11 02:21:44;;;;;;;2.45;2.15;;;;;;;-3.58;59.41;97979.81;1795312;80;21589;-62
2021/03/11 02:24:49;;;;;;;4.00;3.25;;;;;;;-3.62;59.21;97985.09;1795092;80;21117;-62
2021/03/11 02:27:43;;;;;;;2.60;2.37;;;;;;;-3.67;58.89;97986.52;1795173;80;21157;-62
2021/03/11 02:30:12;;;;;;;3.85;3.40;;;;;;;-3.75;56.41;97994.01;1763877;81;21189;-63
2021/03/11 02:32:43;;;;;;;3.70;2.25;;;;;;;-3.86;57.20;97994.39;1763760;81;21608;-62
2021/03/11 02:35:34;;;;;;;2.08;1.90;;;;;;;-3.95;58.03;97997.24;1763990;81;21204;-63
2021/03/11 02:38:04;;;;;;;3.62;2.15;;;;;;;-4.02;59.70;97997.91;1763875;81;21629;-62
2021/03/11 02:40:34;;;;;;;2.77;2.47;;;;;;;-4.09;59.74;97995.19;1763845;81;21204;-62
2021/03/11 02:43:08;;;;;;;5.08;3.58;;;;;;;-4.13;60.41;97994.91;1763825;81;21183;-62
2021/03/11 02:45:37;;;;;;;8.20;3.95;;;;;;;-4.16;61.14;97999.27;1764270;81;21589;-63
2021/03/11 02:48:08;;;;;;;3.20;3.00;;;;;;;-4.17;61.27;97997.59;1764129;81;21204;-62
2021/03/11 02:50:37;;;;;;;3.10;1.55;;;;;;;-4.20;60.89;98003.58;1763844;81;21137;-62
2021/03/11 02:53:11;;;;;;;4.55;2.52;;;;;;;-4.20;61.23;97997.70;1763668;81;21208;-62
2021/03/11 02:55:41;;;;;;;2.33;2.10;;;;;;;-4.20;60.45;97998.51;1763714;81;21192;-62
2021/03/11 02:58:12;;;;;;;2.83;2.00;;;;;;;-4.22;61.50;97996.91;1763620;81;21176;-61
2021/03/11 03:00:42;;;;;;;4.65;2.77;;;;;;;-4.25;61.21;97994.48;1763777;81;21573;-61
2021/03/11 03:03:12;;;;;;;2.12;1.90;;;;;;;-4.26;60.76;97994.09;1763866;81;21168;-61
2021/03/11 03:05:40;;;;;;;3.02;2.62;;;;;;;-4.25;60.67;97999.56;1763467;81;21125;-61
2021/03/11 03:08:10;;;;;;;3.50;2.10;;;;;;;-4.24;60.46;98003.29;1763746;81;21152;-61
2021/03/11 03:10:39;;;;;;;3.92;1.90;;;;;;;-4.23;60.24;98002.86;1763703;81;21204;-61
2021/03/11 03:13:14;;;;;;;3.92;3.58;;;;;;;-4.25;59.53;98000.83;1763689;81;21201;-61
2021/03/11 03:16:02;;;;;;;2.80;2.57;;;;;;;-4.28;59.93;98007.27;1763920;81;21590;-61
2021/03/11 03:18:31;;;;;;;3.87;3.15;;;;;;;-4.35;59.83;98012.97;1703288;84;21897;-61
2021/03/11 03:20:59;;;;;;;4.00;1.98;;;;;;;-4.41;59.10;98020.34;1703358;84;21317;-61
2021/03/11 03:23:28;;;;;;;2.58;2.37;;;;;;;-4.48;59.44;98021.43;1703807;84;21714;-65
2021/03/11 03:25:55;;;;;;;2.70;2.50;;;;;;;-4.53;61.96;98028.34;1703552;84;21623;-61
2021/03/11 03:28:24;;;;;;;2.77;2.47;;;;;;;-4.57;61.36;98027.22;1703561;84;21194;-61
2021/03/11 03:30:52;;;;;;;4.85;3.98;;;;;;;-4.64;61.40;98033.36;1703158;84;21143;-61
2021/03/11 03:33:21;;;;;;;4.62;1.65;;;;;;;-4.68;61.94;98040.23;1703488;83;21206;-61
2021/03/11 03:35:49;;;;;;;6.50;2.87;;;;;;;-4.68;61.28;98032.63;1703534;83;21556;-60
2021/03/11 03:38:18;;;;;;;3.62;2.70;;;;;;;-4.70;60.50;98040.70;1703329;83;21742;-60
2021/03/11 03:40:46;;;;;;;4.78;3.08;;;;;;;-4.74;61.02;98041.67;1703416;83;21179;-61
2021/03/11 03:43:24;;;;;;;3.12;2.65;;;;;;;-4.77;60.88;98041.77;1703265;84;21174;-61
2021/03/11 03:46:12;;;;;;;1.37;1.27;;;;;;;-4.79;61.95;98046.07;1703288;84;21812;-60
2021/03/11 03:48:56;;;;;;;3.27;2.60;;;;;;;-4.82;61.11;98052.47;1703360;84;21305;-63
2021/03/11 03:51:28;;;;;;;2.47;2.02;;;;;;;-4.85;61.96;98052.57;1703152;83;21171;-62
2021/03/11 03:54:08;;;;;;;4.85;4.17;;;;;;;-4.89;60.89;98056.07;1703370;84;21166;-63
2021/03/11 03:56:42;;;;;;;5.22;2.58;;;;;;;-4.94;62.05;98052.87;1703352;83;21182;-62
2021/03/11 03:59:14;;;;;;;2.37;2.20;;;;;;;-4.97;60.94;98051.67;1703702;84;21333;-62
2021/03/11 04:01:43;;;;;;;2.92;1.45;;;;;;;-4.99;62.10;98053.00;1703641;84;21695;-62
2021/03/11 04:04:13;;;;;;;7.47;2.75;;;;;;;-5.00;61.99;98054.30;1703376;84;21265;-62
2021/03/11 04:06:43;;;;;;;2.83;2.62;;;;;;;-5.02;60.80;98055.59;1703452;84;21238;-61
2021/03/11 04:09:13;;;;;;;2.02;1.85;;;;;;;-5.03;58.78;98065.80;1702459;84;21175;-62
2021/03/11 04:11:46;;;;;;;3.08;1.17;;;;;;;-5.03;60.26;98067.89;1703310;83;21695;-63
2021/03/11 04:14:16;;;;;;;2.67;2.47;;;;;;;-5.04;60.41;98069.19;1703118;84;21639;-63
2021/03/11 04:16:47;;;;;;;2.85;2.65;;;;;;;-5.10;63.26;98069.38;1701643;84;21321;-64
2021/03/11 04:19:17;;;;;;;3.22;2.17;;;;;;;-5.10;62.71;98068.95;1703140;83;21702;-64
2021/03/11 04:21:46;;;;;;;1.87;1.75;;;;;;;-5.15;64.09;98068.25;1677397;85;21593;-63
2021/03/11 04:24:16;;;;;;;2.67;2.42;;;;;;;-5.21;64.49;98070.94;1695288;85;21292;-63
2021/03/11 04:26:46;;;;;;;2.42;1.62;;;;;;;-5.28;66.58;98071.55;1703411;84;21183;-63
2021/03/11 04:29:15;;;;;;;2.37;1.50;;;;;;;-5.27;64.54;98074.92;1677522;85;21213;-63
2021/03/11 04:31:45;;;;;;;6.67;4.10;;;;;;;-5.27;63.87;98079.98;1695432;84;21182;-63
2021/03/11 04:34:13;;;;;;;4.45;1.90;;;;;;;-5.23;63.32;98067.63;1674631;86;21252;-64
2021/03/11 04:37:01;;;;;;;1.55;1.47;;;;;;;-5.19;62.97;98072.17;1695854;84;21170;-63
2021/03/11 04:39:31;;;;;;;2.65;2.45;;;;;;;-5.18;63.15;98075.94;1652375;86;21568;-63
2021/03/11 04:42:00;;;;;;;2.70;2.50;;;;;;;-5.18;64.44;98072.57;1673353;85;21237;-64
2021/03/11 04:44:28;;;;;;;3.42;3.12;;;;;;;-5.17;63.44;98071.24;1673106;85;21158;-64
2021/03/11 04:46:56;;;;;;;3.00;2.67;;;;;;;-5.14;64.50;98070.34;1673183;85;21618;-64
2021/03/11 04:49:31;;;;;;;6.97;3.58;;;;;;;-5.17;65.43;98071.70;1673343;85;21178;-62
2021/03/11 04:52:01;;;;;;;1.67;1.57;;;;;;;-5.20;65.21;98078.09;1672978;85;21300;-64
2021/03/11 04:54:30;;;;;;;5.03;2.20;;;;;;;-5.19;62.74;98076.80;1672998;85;21313;-64
2021/03/11 04:56:58;;;;;;;2.92;2.02;;;;;;;-5.19;64.87;98075.53;1672890;85;21356;-64
2021/03/11 04:59:47;;;;;;;2.52;1.55;;;;;;;-5.20;63.74;98072.61;1673071;85;21190;-63
2021/03/11 05:02:17;;;;;;;3.08;2.02;;;;;;;-5.20;63.55;98081.90;1730363;83;21652;-63
2021/03/11 05:04:46;;;;;;;4.25;2.47;;;;;;;-5.20;62.26;98092.02;1730577;82;21589;-64
2021/03/11 05:07:15;;;;;;;3.05;2.67;;;;;;;-5.18;61.72;98090.30;1730581;82;21572;-64
2021/03/11 05:09:43;;;;;;;5.28;2.37;;;;;;;-5.17;63.65;98091.96;1730411;82;21596;-64
2021/03/11 05:12:13;;;;;;;2.42;2.30;;;;;;;-5.14;63.92;98090.60;1730620;82;21170;-64
2021/03/11 05:14:41;;;;;;;1.80;1.70;;;;;;;-5.18;62.87;98087.33;1731143;82;21781;-64
2021/03/11 05:17:08;;;;;;;2.25;2.00;;;;;;;-5.16;61.51;98084.73;1730509;82;21568;-63
2021/03/11 05:19:37;;;;;;;4.83;2.75;;;;;;;-5.13;62.20;98091.80;1730673;82;21293;-63
2021/03/11 05:22:05;;;;;;;3.92;2.37;;;;;;;-5.10;63.41;98099.77;1730675;82;21285;-65
2021/03/11 05:24:33;;;;;;;3.20;3.00;;;;;;;-5.07;62.77;98097.98;1730317;82;21206;-65
2021/03/11 05:27:04;;;;;;;3.50;2.58;;;;;;;-5.02;61.24;98099.11;1729025;82;21196;-64
2021/03/11 05:29:32;;;;;;;2.47;2.27;;;;;;;-4.98;61.46;98108.28;1730827;82;21170;-64
2021/03/11 05:32:01;;;;;;;5.92;5.15;;;;;;;-4.94;62.66;98113.66;1730642;81;21219;-62
2021/03/11 05:34:29;;;;;;;4.28;2.47;;;;;;;-4.90;62.79;98110.13;1730800;81;21163;-64
2021/03/11 05:36:58;;;;;;;2.15;1.72;;;;;;;-4.83;62.51;98106.56;1730621;81;21573;-65
2021/03/11 05:39:25;;;;;;;2.98;1.57;;;;;;;-4.76;62.26;98103.41;1730447;81;21250;-63
2021/03/11 05:41:55;;;;;;;3.72;2.80;;;;;;;-4.67;61.71;98115.80;1730461;82;21596;-61
2021/03/11 05:44:24;;;;;;;4.65;2.80;;;;;;;-4.61;60.95;98113.91;1730350;81;21599;-62
2021/03/11 05:46:53;;;;;;;2.75;1.72;;;;;;;-4.56;58.99;98116.31;1738944;81;21586;-62
2021/03/11 05:49:22;;;;;;;4.60;4.17;;;;;;;-4.52;59.78;98110.27;1741925;81;21203;-64
2021/03/11 05:51:50;;;;;;;2.77;1.95;;;;;;;-4.46;60.05;98115.97;1741808;81;21549;-65
2021/03/11 05:54:18;;;;;;;3.90;3.55;;;;;;;-4.42;58.15;98116.27;1740776;81;21183;-64
2021/03/11 05:56:47;;;;;;;2.60;2.22;;;;;;;-4.38;58.86;98122.91;1735928;81;21602;-61
2021/03/11 05:59:16;;;;;;;3.55;3.25;;;;;;;-4.36;59.68;98117.34;1730573;82;21215;-62
2021/03/11 06:01:46;;;;;;;3.05;2.25;;;;;;;-4.33;58.84;98116.00;1706286;81;21146;-62
2021/03/11 06:04:15;;;;;;;1.57;1.47;;;;;;;-4.26;59.39;98124.66;1698748;83;21773;-61
2021/03/11 06:06:46;;;;;;;7.12;3.58;;;;;;;-4.20;59.07;98129.09;1681181;84;21161;-62
2021/03/11 06:09:16;;;;;;;5.28;3.17;;;;;;;-4.14;58.91;98127.65;1698871;83;21202;-61
2021/03/11 06:11:45;;;;;;;3.60;3.10;;;;;;;-4.06;59.45;98135.84;1698852;83;21301;-61
2021/03/11 06:14:15;;;;;;;2.33;2.08;;;;;;;-3.98;57.55;98138.13;1698845;83;21180;-61
2021/03/11 06:17:08;;;;;;;2.55;1.98;;;;;;;-3.90;58.59;98142.52;1698967;84;21305;-62
2021/03/11 06:19:36;;;;;;;3.95;2.30;;;;;;;-3.83;57.59;98142.70;1681229;84;21702;-61
2021/03/11 06:22:06;;;;;;;5.83;2.40;;;;;;;-3.71;57.23;98135.96;1733451;81;21187;-61
2021/03/11 06:24:35;;;;;;;1.87;1.65;;;;;;;-3.60;58.24;98139.40;1733712;81;21183;-61
2021/03/11 06:27:23;;;;;;;23.30;12.25;;;;;;;-3.46;59.04;98146.09;1733366;81;21296;-61
2021/03/11 06:29:51;;;;;;;20.95;14.25;;;;;;;-3.33;58.49;98140.99;1683130;84;21210;-63
2021/03/11 06:32:19;;;;;;;17.85;9.05;;;;;;;-3.13;58.73;98160.18;1682880;85;21312;-64
2021/03/11 06:34:47;;;;;;;16.00;14.50;;;;;;;-2.98;58.53;98158.36;1655685;85;21155;-70
2021/03/11 06:37:22;;;;;;;5.33;3.60;;;;;;;-2.82;59.63;98160.34;1710772;84;21326;-67
2021/03/11 06:39:50;;;;;;;3.72;2.70;;;;;;;-2.61;61.73;98162.95;1703695;84;21326;-67
2021/03/11 06:42:24;;;;;;;3.58;2.27;;;;;;;-2.37;59.92;98173.88;1702680;84;21156;-67
2021/03/11 06:44:52;;;;;;;6.05;4.22;;;;;;;-2.13;60.96;98173.38;1682765;85;21209;-67
2021/03/11 06:47:25;;;;;;;8.28;6.35;;;;;;;-1.86;58.47;98175.28;1682572;85;21182;-66
2021/03/11 06:50:46;;;;;;;9.05;6.08;;;;;;;-1.63;58.71;98173.91;1681165;84;21192;-67
2021/03/11 06:53:14;;;;;;;13.53;4.67;;;;;;;-1.44;57.55;98178.66;1705555;83;21161;-63
2021/03/11 06:55:42;;;;;;;7.00;5.58;;;;;;;-1.26;57.06;98164.30;1705323;83;21171;-63
2021/03/11 06:58:42;;;;;;;9.68;6.58;;;;;;;-1.09;56.41;98166.97;1704797;83;21158;-63
2021/03/11 07:01:10;;;;;;;10.88;6.85;;;;;;;-0.93;56.29;98174.78;1701078;84;21199;-63
2021/03/11 07:03:43;;;;;;;10.40;5.80;;;;;;;-0.82;55.65;98173.42;1684718;84;21489;-62
2021/03/11 07:06:37;;;;;;;9.55;6.97;;;;;;;-0.79;55.36;98175.00;1687194;84;21587;-62
2021/03/11 07:09:07;;;;;;;6.72;5.80;;;;;;;-0.61;55.33;98169.06;1711987;84;21185;-62
2021/03/11 07:11:53;;;;;;;5.45;4.75;;;;;;;-0.44;54.70;98161.48;1684442;84;21576;-62
2021/03/11 07:14:29;;;;;;;5.85;4.70;;;;;;;-0.40;54.39;98168.11;1687160;85;21553;-62
2021/03/11 07:17:22;;;;;;;12.25;6.37;;;;;;;-0.36;53.86;98167.07;1712001;84;21174;-62
2021/03/11 07:20:14;;;;;;;9.08;5.33;;;;;;;-0.27;55.55;98167.10;1684249;84;21183;-63
2021/03/11 07:23:29;;;;;;;11.30;4.35;;;;;;;-0.29;54.49;98176.09;1687119;85;21169;-63
2021/03/11 07:25:58;;;;;;;6.90;5.37;;;;;;;-0.12;54.35;98176.59;1659403;85;21193;-62
2021/03/11 07:28:29;;;;;;;5.20;3.62;;;;;;;0.00;52.76;98176.02;1679584;85;21158;-62
2021/03/11 07:31:01;;;;;;;5.33;4.08;;;;;;;0.10;52.92;98184.89;1656231;86;21213;-64
2021/03/11 07:33:32;;;;;;;7.12;4.83;;;;;;;0.29;52.33;98189.49;1662990;84;21254;-62
2021/03/11 07:36:03;;;;;;;10.38;4.78;;;;;;;0.46;52.25;98183.12;1669680;84;21228;-61
2021/03/11 07:38:35;;;;;;;6.47;3.92;;;;;;;0.60;50.92;98184.16;1668059;85;21192;-61
2021/03/11 07:41:24;;;;;;;10.30;3.77;;;;;;;0.73;49.49;98186.05;1666662;84;21168;-62
2021/03/11 07:43:53;;;;;;;4.42;3.35;;;;;;;0.73;49.49;98186.05;1673157;84;21178;-63
2021/03/11 07:46:21;;;;;;;4.87;3.15;;;;;;;0.94;50.00;98185.39;1681372;85;21145;-62
2021/03/11 07:48:50;;;;;;;6.72;3.95;;;;;;;1.12;49.74;98183.20;1687352;85;21181;-63
2021/03/11 07:51:19;;;;;;;7.22;3.75;;;;;;;1.34;50.05;98177.78;1709626;84;21162;-63
2021/03/11 07:53:47;;;;;;;7.53;5.17;;;;;;;1.52;48.98;98176.80;1709923;84;21182;-63
2021/03/11 07:56:16;;;;;;;7.95;4.45;;;;;;;1.70;47.95;98164.76;1709676;84;21174;-62
2021/03/11 07:58:46;;;;;;;6.87;4.30;;;;;;;1.81;46.40;98164.55;1709644;84;21171;-64
2021/03/11 08:01:16;;;;;;;8.68;5.05;;;;;;;1.90;45.51;98168.34;1709759;84;21131;-62
2021/03/11 08:03:46;;;;;;;4.92;2.77;;;;;;;1.89;45.46;98164.13;1709954;83;21220;-63
2021/03/11 08:06:29;;;;;;;9.13;4.35;;;;;;;1.94;44.92;98164.70;1709807;84;21161;-63
2021/03/11 08:08:57;;;;;;;9.48;3.47;;;;;;;2.07;44.58;98163.55;1709698;84;21559;-64
2021/03/11 08:11:41;;;;;;;6.90;3.67;;;;;;;2.03;42.94;98164.18;1709732;84;21193;-65
2021/03/11 08:14:25;;;;;;;4.08;3.20;;;;;;;2.13;42.36;98165.79;1709584;84;21198;-64
2021/03/11 08:16:56;;;;;;;12.37;5.15;;;;;;;2.31;42.75;98166.86;1709623;84;21194;-64
2021/03/11 08:19:57;;;;;;;6.70;3.87;;;;;;;2.49;42.18;98169.30;1709517;84;21162;-64
2021/03/11 08:22:57;;;;;;;7.47;5.30;;;;;;;2.59;41.46;98167.84;1663045;85;21181;-62
2021/03/11 08:25:39;;;;;;;13.75;6.53;;;;;;;2.61;41.43;98171.96;1677905;85;21642;-63
2021/03/11 08:28:15;;;;;;;8.00;4.17;;;;;;;2.76;42.20;98170.27;1677890;85;21611;-63
2021/03/11 08:30:53;;;;;;;4.90;3.37;;;;;;;2.98;42.20;98174.95;1664824;85;21146;-63
2021/03/11 08:33:29;;;;;;;7.83;4.10;;;;;;;3.20;42.56;98183.02;1677623;85;21170;-63
2021/03/11 08:36:00;;;;;;;12.37;6.65;;;;;;;3.30;41.62;98178.55;1677625;85;21571;-67
2021/03/11 08:38:36;;;;;;;8.00;4.42;;;;;;;3.19;40.82;98169.36;1677648;85;21602;-64
2021/03/11 08:41:13;;;;;;;;;;;;;;;3.41;40.69;98170.19;1680107;85;21161;-63
2021/03/11 08:43:46;;;;;;;9.80;5.72;;;;;;;3.44;39.77;98172.56;1677945;85;20416;-64
2021/03/11 08:46:21;;;;;;;8.50;4.37;;;;;;;3.54;39.26;98173.64;1677370;85;21127;-64
2021/03/11 08:48:58;;;;;;;10.58;4.30;;;;;;;3.77;39.61;98174.81;1677670;85;21614;-64
2021/03/11 08:51:33;;;;;;;6.80;3.92;;;;;;;3.78;38.88;98167.00;1677957;85;21179;-64
2021/03/11 08:54:03;;;;;;;11.30;6.05;;;;;;;3.98;38.45;98167.48;1677691;85;21218;-61
2021/03/11 08:56:39;;;;;;;10.65;5.15;;;;;;;3.88;38.04;98168.55;1677625;85;21171;-64
2021/03/11 08:59:18;;;;;;;7.05;3.65;;;;;;;3.92;37.92;98161.01;1677703;85;21556;-64
2021/03/11 09:01:52;;;;;;;5.53;2.80;;;;;;;3.88;36.21;98167.72;1676804;84;21170;-64
2021/03/11 09:04:27;;;;;;;7.60;4.03;;;;;;;4.41;38.74;98156.56;1677751;85;21195;-64
2021/03/11 09:07:09;;;;;;;12.93;4.33;;;;;;;4.86;36.77;98155.30;1677646;85;21181;-64
2021/03/11 09:09:53;;;;;;;8.43;5.05;;;;;;;5.16;35.49;98151.48;1653595;85;21629;-64
2021/03/11 09:12:38;;;;;;;11.53;6.12;;;;;;;5.44;35.46;98153.45;1654060;85;21191;-64
2021/03/11 09:15:11;;;;;;;17.60;4.17;;;;;;;5.73;35.77;98151.77;1676389;85;21238;-65
2021/03/11 09:17:41;;;;;;;8.80;4.30;;;;;;;5.90;33.67;98153.20;1676201;85;21190;-64
2021/03/11 09:20:16;;;;;;;7.05;4.92;;;;;;;6.25;33.24;98147.26;1676056;85;21647;-65
2021/03/11 09:22:49;;;;;;;5.75;3.77;;;;;;;6.32;33.07;98141.54;1655746;87;21246;-65
2021/03/11 09:25:42;;;;;;;8.30;4.17;;;;;;;6.75;32.78;98128.88;1663999;85;21628;-63
2021/03/11 09:28:14;;;;;;;7.62;3.95;;;;;;;6.88;30.31;98128.32;1669558;85;21649;-64
2021/03/11 09:30:43;;;;;;;11.45;6.05;;;;;;;7.34;31.69;98132.09;1654452;87;21187;-65
2021/03/11 09:33:14;;;;;;;8.75;4.28;;;;;;;6.97;30.07;98131.48;1664171;85;21700;-65
2021/03/11 09:35:42;;;;;;;6.85;4.17;;;;;;;7.40;30.03;98129.48;1663954;86;21193;-64
2021/03/11 09:38:12;;;;;;;6.92;3.50;;;;;;;7.79;29.72;98126.37;1663892;86;21242;-65
2021/03/11 09:40:43;;;;;;;7.70;4.08;;;;;;;8.24;30.49;98119.30;1664011;86;21145;-64
2021/03/11 09:43:27;;;;;;;8.93;3.80;;;;;;;7.88;28.32;98115.30;1664225;86;21168;-65
2021/03/11 09:46:01;;;;;;;9.80;4.78;;;;;;;8.05;28.65;98116.05;1664701;86;21133;-65
2021/03/11 09:48:57;;;;;;;10.75;5.60;;;;;;;8.45;27.65;98111.56;1664957;86;21172;-65
2021/03/11 09:51:30;;;;;;;11.70;5.42;;;;;;;8.61;27.21;98108.06;1766085;80;21174;-64
2021/03/11 09:54:06;;;;;;;8.05;4.55;;;;;;;9.43;25.62;98108.86;1764745;81;21202;-64
2021/03/11 09:56:44;;;;;;;7.37;4.12;;;;;;;9.75;25.65;98106.08;1766103;81;21614;-64
2021/03/11 09:59:15;;;;;;;9.35;4.55;;;;;;;10.17;23.84;98100.20;1765820;81;21143;-64
2021/03/11 10:01:46;;;;;;;9.58;4.20;;;;;;;10.62;22.40;98101.75;1751035;81;21210;-64
2021/03/11 10:07:14;;;;;;;5.35;3.33;;;;;;;11.68;21.25;98094.34;1740717;81;21313;-65
2021/03/11 10:09:47;;;;;;;7.60;3.92;;;;;;;12.38;21.15;98087.06;1740791;81;21330;-63
2021/03/11 10:12:36;;;;;;;7.60;4.03;;;;;;;12.78;19.66;98086.55;1740731;82;21152;-65
2021/03/11 10:15:11;;;;;;;6.45;3.55;;;;;;;12.84;19.28;98084.61;1740840;82;21468;-65
2021/03/11 10:17:40;;;;;;;5.87;3.52;;;;;;;13.72;19.95;98084.72;1741081;81;21593;-64
2021/03/11 10:20:28;;;;;;;6.85;4.37;;;;;;;14.16;20.33;98079.55;1740794;81;21290;-65
2021/03/11 10:23:20;;;;;;;8.50;4.30;;;;;;;12.19;19.58;98091.95;1740944;82;21314;-65
2021/03/11 10:26:16;;;;;;;7.03;3.33;;;;;;;12.99;19.38;98083.09;1740813;81;21493;-64
2021/03/11 10:28:47;;;;;;;7.40;3.85;;;;;;;13.28;17.85;98084.06;1740859;81;21373;-69
2021/03/11 10:31:16;;;;;;;5.53;3.50;;;;;;;13.23;18.32;98094.14;1740718;82;21601;-65
2021/03/11 10:33:44;;;;;;;6.33;3.50;;;;;;;13.87;18.71;98090.13;1740831;82;21475;-64
2021/03/11 10:36:19;;;;;;;5.53;3.60;;;;;;;13.61;17.41;98095.45;1741011;82;21672;-64
2021/03/11 10:39:08;;;;;;;4.95;2.95;;;;;;;13.93;18.48;98101.25;1740818;81;21173;-66
2021/03/11 10:41:57;;;;;;;7.97;4.08;;;;;;;14.84;18.08;98105.38;1740947;82;21282;-65
2021/03/11 10:44:25;;;;;;;6.15;3.80;;;;;;;15.51;16.35;98102.77;1740869;81;21171;-65
2021/03/11 10:46:53;;;;;;;5.62;3.98;;;;;;;13.14;17.99;98102.92;1740730;81;21181;-65
2021/03/11 10:49:39;;;;;;;7.67;3.92;;;;;;;14.55;16.77;98099.87;1738284;81;21203;-65
2021/03/11 10:52:07;;;;;;;6.25;3.52;;;;;;;13.68;17.71;98099.06;1741020;82;21228;-64
2021/03/11 10:54:35;;;;;;;7.42;3.58;;;;;;;14.19;17.26;98092.80;1740946;82;21168;-65
2021/03/11 10:57:11;;;;;;;7.83;4.58;;;;;;;14.78;16.70;98092.98;1740753;82;21168;-63
2021/03/11 11:00:16;;;;;;;6.83;4.12;;;;;;;16.13;18.15;98088.34;1741062;82;21668;-63
2021/03/11 11:02:44;;;;;;;8.93;4.10;;;;;;;15.95;15.43;98086.51;1640966;87;21151;-65
2021/03/11 11:05:14;;;;;;;8.90;3.30;;;;;;;15.99;16.54;98079.94;1652263;87;21599;-62
2021/03/11 11:07:42;;;;;;;7.12;3.42;;;;;;;15.52;16.64;98067.77;1652189;87;21592;-63
2021/03/11 11:10:16;;;;;;;5.60;3.55;;;;;;;14.07;17.45;98067.97;1652299;87;21588;-62
2021/03/11 11:12:45;;;;;;;7.10;3.67;;;;;;;13.75;17.48;98059.11;1652136;86;21178;-62
2021/03/11 11:15:16;;;;;;;8.40;3.80;;;;;;;13.91;17.58;98056.20;1652061;87;21248;-64
2021/03/11 11:17:45;;;;;;;6.30;3.90;;;;;;;13.03;17.98;98058.84;1652401;87;21344;-64
2021/03/11 11:20:17;;;;;;;6.70;3.87;;;;;;;12.87;18.03;98058.75;1652325;87;21179;-64
2021/03/11 11:22:45;;;;;;;4.70;3.60;;;;;;;13.36;17.31;98051.50;1652193;86;21218;-63
2021/03/11 11:25:14;;;;;;;5.97;3.08;;;;;;;11.69;18.73;98052.58;1652283;87;21145;-64
2021/03/11 11:27:42;;;;;;;6.35;3.87;;;;;;;13.24;18.31;98035.32;1652082;87;21183;-64
2021/03/11 11:30:14;;;;;;;7.40;4.35;;;;;;;13.58;18.91;98039.16;1626182;87;21728;-64
2021/03/11 11:32:45;;;;;;;7.13;4.33;;;;;;;13.67;17.91;98036.09;1649837;87;21203;-64
2021/03/11 11:35:15;;;;;;;6.65;4.47;;;;;;;13.95;17.34;98037.94;1652068;87;21223;-64
2021/03/11 11:38:05;;;;;;;8.65;3.85;;;;;;;13.60;17.81;98028.09;1652186;87;21207;-64
2021/03/11 11:40:34;;;;;;;6.58;4.05;;;;;;;13.35;17.55;98025.08;1685753;84;21171;-64
2021/03/11 11:43:02;;;;;;;5.20;3.62;;;;;;;14.38;16.45;98027.20;1655123;87;21602;-64
2021/03/11 11:45:31;;;;;;;5.58;3.27;;;;;;;14.61;16.40;98016.38;1655197;85;21606;-64
2021/03/11 11:47:59;;;;;;;4.55;3.58;;;;;;;14.68;16.52;98012.60;1655049;85;21702;-64
2021/03/11 11:50:30;;;;;;;5.00;3.22;;;;;;;14.59;16.60;98007.88;1654752;86;21194;-65
2021/03/11 11:52:57;;;;;;;4.97;3.52;;;;;;;15.93;15.58;97999.42;1655081;87;21593;-63
2021/03/11 11:55:25;;;;;;;7.47;4.17;;;;;;;16.47;15.03;97989.61;1654957;85;21681;-64
2021/03/11 11:57:53;;;;;;;6.75;4.70;;;;;;;16.22;15.43;97986.92;1655147;85;21658;-64
2021/03/11 12:03:11;;;;;;;4.87;3.10;;;;;;;15.37;16.46;97984.37;1711381;84;21191;-64
2021/03/11 12:05:40;;;;;;;8.13;4.53;;;;;;;16.18;16.31;97969.92;1711290;83;21222;-64
2021/03/11 12:08:08;;;;;;;10.55;4.65;;;;;;;14.95;18.07;97973.45;1711480;84;21170;-61